Time;durP1;ratioP1;P1;durP2;ratioP2;P2;SDS_P1;SDS_P2;PMS_P1;PMS_P2;Temp;Humidity;BMP_temperature;BMP_pressure;BME280_temperature;BME280_humidity;BME280_pressure;Samples;Min_cycle;Max_cycle;Signal;HPM_P1;HPM_P2
2023/01/27 00:02:25;;;;;;;4.40;3.20;;;6.10;69.80;5.70;96382.00;;;;5051433;28;20224;-88
2023/01/27 00:04:57;;;;;;;4.13;3.27;;;6.10;69.70;5.70;96393.00;;;;5051875;28;20279;-87
2023/01/27 00:07:29;;;;;;;3.40;3.10;;;6.10;70.00;5.70;96381.00;;;;5053011;28;20197;-87
2023/01/27 00:09:57;;;;;;;4.37;3.10;;;6.00;69.70;5.70;96378.00;;;;5054425;28;20184;-88
2023/01/27 00:15:19;;;;;;;4.03;2.87;;;6.00;69.70;5.60;96387.00;;;;5052836;28;20945;-88
2023/01/27 00:17:49;;;;;;;6.07;3.13;;;6.00;69.60;5.60;96388.00;;;;5054027;28;20195;-88
2023/01/27 00:24:34;;;;;;;3.67;3.07;;;6.00;69.80;5.60;96376.00;;;;5054964;28;20225;-88
2023/01/27 00:26:08;;;;;;;5.00;3.27;;;6.00;69.90;5.60;96376.00;;;;5059271;28;20279;-88
2023/01/27 00:28:44;;;;;;;3.50;3.20;;;6.00;70.00;5.60;96380.00;;;;5057899;28;20552;-88
2023/01/27 00:34:10;;;;;;;6.20;3.60;;;6.00;70.00;5.60;96383.00;;;;5035782;28;20185;-90
2023/01/27 00:36:52;;;;;;;6.90;3.50;;;5.90;69.90;5.60;96380.00;;;;5052674;28;20208;-89
2023/01/27 00:39:19;;;;;;;3.90;3.30;;;5.90;70.10;5.60;96375.00;;;;5052186;28;20250;-89
2023/01/27 00:41:48;;;;;;;3.37;3.07;;;5.90;70.00;5.60;96363.00;;;;5045630;28;20224;-89
2023/01/27 00:44:17;;;;;;;7.27;3.80;;;5.90;70.00;5.60;96371.00;;;;5051696;28;20227;-88
2023/01/27 00:46:44;;;;;;;3.67;3.30;;;5.90;70.00;5.60;96375.00;;;;5063819;28;20192;-89
2023/01/27 00:49:17;;;;;;;4.00;3.60;;;5.90;70.00;5.60;96373.00;;;;5072559;28;20265;-89
2023/01/27 00:51:45;;;;;;;6.83;2.90;;;5.90;70.00;5.60;96374.00;;;;5053987;28;20224;-89
2023/01/27 00:54:13;;;;;;;4.47;3.63;;;5.90;70.00;5.60;96383.00;;;;5050517;28;20561;-89
2023/01/27 00:56:44;;;;;;;4.40;3.53;;;5.90;70.00;5.60;96379.00;;;;5052195;28;20827;-88
2023/01/27 00:59:12;;;;;;;3.80;3.50;;;5.90;70.00;5.60;96385.00;;;;5049808;28;20250;-88
2023/01/27 01:01:50;;;;;;;6.33;3.27;;;5.90;69.80;5.60;96389.00;;;;5053509;28;20644;-88
2023/01/27 01:04:17;;;;;;;4.53;3.33;;;5.90;69.80;5.60;96392.00;;;;5050982;28;20192;-89
2023/01/27 01:07:17;;;;;;;5.07;3.80;;;5.90;69.60;5.50;96395.00;;;;5051373;28;21622;-89
2023/01/27 01:09:45;;;;;;;3.87;3.50;;;5.90;69.30;5.50;96382.00;;;;5054742;28;20254;-89
2023/01/27 01:12:19;;;;;;;5.90;4.30;;;5.90;69.00;5.40;96391.00;;;;5054162;28;20221;-89
2023/01/27 01:15:02;;;;;;;4.63;4.10;;;5.80;68.70;5.40;96390.00;;;;5055928;28;20637;-88
2023/01/27 01:17:39;;;;;;;4.83;3.73;;;5.80;68.70;5.40;96399.00;;;;5054807;28;20208;-89
2023/01/27 01:20:16;;;;;;;5.27;4.17;;;5.80;68.90;5.40;96394.00;;;;5056219;28;20209;-90
2023/01/27 01:23:01;;;;;;;6.93;4.50;;;5.80;68.90;5.30;96389.00;;;;5055607;28;20255;-90
2023/01/27 01:25:38;;;;;;;7.93;4.20;;;5.70;68.60;5.30;96395.00;;;;5058188;28;20258;-89
2023/01/27 01:28:09;;;;;;;9.30;4.60;;;5.70;68.80;5.30;96389.00;;;;5058119;28;20198;-89
2023/01/27 01:30:44;;;;;;;4.63;3.90;;;5.70;69.10;5.30;96382.00;;;;5057293;28;20232;-89
2023/01/27 01:33:14;;;;;;;6.80;4.10;;;5.70;69.10;5.30;96387.00;;;;5058133;28;20254;-89
2023/01/27 01:35:46;;;;;;;5.77;4.30;;;5.70;69.10;5.30;96382.00;;;;5056398;28;20236;-89
2023/01/27 01:38:20;;;;;;;7.10;4.77;;;5.70;68.80;5.20;96390.00;;;;5055083;28;20211;-89
2023/01/27 01:40:50;;;;;;;7.00;4.90;;;5.60;68.70;5.20;96397.00;;;;5056163;28;20254;-88
2023/01/27 01:43:26;;;;;;;7.77;4.93;;;5.60;68.70;5.20;96417.00;;;;5055231;28;20224;-89
2023/01/27 01:45:59;;;;;;;6.60;4.83;;;5.60;68.80;5.10;96412.00;;;;5055062;28;20657;-89
2023/01/27 01:48:41;;;;;;;7.23;4.90;;;5.60;68.80;5.10;96398.00;;;;5054480;28;20188;-89
2023/01/27 01:51:23;;;;;;;6.13;5.27;;;5.60;69.00;5.10;96379.00;;;;5053781;28;20313;-88
2023/01/27 01:54:01;;;;;;;7.83;5.17;;;5.50;69.00;5.10;96389.00;;;;5054791;28;20701;-89
2023/01/27 01:56:37;;;;;;;5.70;4.63;;;5.50;69.00;5.10;96381.00;;;;5053339;28;20201;-89
2023/01/27 01:59:11;;;;;;;7.37;5.50;;;5.50;69.10;5.10;96384.00;;;;5053733;28;20825;-90
2023/01/27 02:01:43;;;;;;;7.83;5.03;;;5.50;69.10;5.10;96388.00;;;;5055467;28;20259;-89
2023/01/27 02:04:26;;;;;;;8.00;5.43;;;5.50;69.80;5.10;96392.00;;;;5055456;28;20394;-89
2023/01/27 02:07:26;;;;;;;8.87;5.60;;;5.50;69.20;5.10;96387.00;;;;5055883;28;20211;-89
2023/01/27 02:09:59;;;;;;;7.60;5.57;;;5.50;69.20;5.20;96385.00;;;;5056187;28;20266;-89
2023/01/27 02:12:30;;;;;;;7.63;5.30;;;5.50;69.30;5.10;96377.00;;;;5055929;28;20227;-89
2023/01/27 02:15:00;;;;;;;8.60;5.80;;;5.50;69.10;5.10;96386.00;;;;5054580;28;20200;-89
2023/01/27 02:17:33;;;;;;;8.93;5.47;;;5.50;69.10;5.10;96381.00;;;;5054101;28;20228;-89
2023/01/27 02:20:21;;;;;;;9.77;5.27;;;5.50;69.30;5.10;96381.00;;;;5053998;28;20204;-89
2023/01/27 02:23:04;;;;;;;7.53;5.00;;;5.50;69.30;5.10;96384.00;;;;5054491;28;20224;-89
2023/01/27 02:25:52;;;;;;;8.63;5.90;;;5.50;69.20;5.20;96379.00;;;;5053925;28;20934;-89
2023/01/27 02:28:20;;;;;;;8.03;5.53;;;5.50;69.20;5.10;96380.00;;;;5054148;28;20555;-87
2023/01/27 02:30:53;;;;;;;8.17;5.40;;;5.50;69.20;5.10;96382.00;;;;5051423;28;20231;-89
2023/01/27 02:33:33;;;;;;;7.97;5.77;;;5.50;69.20;5.10;96383.00;;;;5055681;28;20589;-89
2023/01/27 02:36:20;;;;;;;9.10;6.00;;;5.50;69.20;5.10;96384.00;;;;5054773;28;20205;-89
2023/01/27 02:38:54;;;;;;;10.67;5.90;;;5.50;69.20;5.20;96380.00;;;;5037061;28;20209;-88
2023/01/27 02:41:30;;;;;;;8.50;6.07;;;5.50;69.10;5.20;96374.00;;;;5054438;28;20269;-89
2023/01/27 02:44:01;;;;;;;9.47;6.00;;;5.50;69.20;5.20;96374.00;;;;5052968;28;20617;-89
2023/01/27 02:46:28;;;;;;;9.33;6.07;;;5.50;69.20;5.10;96372.00;;;;5054458;28;20624;-89
2023/01/27 02:48:56;;;;;;;10.43;5.73;;;5.50;69.10;5.20;96373.00;;;;5053850;28;20255;-89
2023/01/27 02:51:29;;;;;;;13.00;5.97;;;5.50;69.30;5.20;96370.00;;;;5053328;28;20308;-89
2023/01/27 02:54:00;;;;;;;10.87;5.40;;;5.50;69.40;5.20;96365.00;;;;5052306;28;20204;-88
2023/01/27 02:56:35;;;;;;;9.63;6.30;;;5.50;69.60;5.20;96372.00;;;;5052872;28;20279;-88
2023/01/27 02:59:02;;;;;;;11.30;6.20;;;5.60;69.80;5.20;96367.00;;;;5052131;28;20655;-89
2023/01/27 03:01:36;;;;;;;10.13;6.33;;;5.60;69.80;5.20;96368.00;;;;5052470;28;20308;-89
2023/01/27 03:04:07;;;;;;;11.80;7.00;;;5.60;69.70;5.30;96355.00;;;;5053246;28;20180;-89
2023/01/27 03:06:46;;;;;;;10.70;6.40;;;5.60;69.70;5.30;96375.00;;;;5054048;28;20185;-89
2023/01/27 03:09:18;;;;;;;12.47;6.83;;;5.60;69.60;5.30;96366.00;;;;5054136;28;20189;-88
2023/01/27 03:20:09;;;;;;;13.27;6.47;;;5.60;69.70;5.30;96358.00;;;;5053305;28;20215;-89
2023/01/27 03:22:36;;;;;;;11.50;6.37;;;5.60;69.80;5.30;96362.00;;;;5052832;28;20258;-89
2023/01/27 03:25:06;;;;;;;12.10;7.23;;;5.70;70.00;5.30;96356.00;;;;5051932;28;20258;-89
2023/01/27 03:27:42;;;;;;;21.20;7.80;;;5.70;69.80;5.30;96361.00;;;;5052225;28;20849;-89
2023/01/27 03:30:15;;;;;;;13.23;7.23;;;5.70;69.80;5.30;96365.00;;;;5052019;28;20619;-89
2023/01/27 03:32:45;;;;;;;11.00;6.33;;;5.70;70.00;5.30;96361.00;;;;5052796;28;20225;-90
2023/01/27 03:35:21;;;;;;;11.60;6.57;;;5.70;69.90;5.30;96361.00;;;;5052921;28;20215;-89
2023/01/27 03:46:37;;;;;;;10.53;6.33;;;5.70;69.80;5.30;96363.00;;;;5052135;28;20323;-88
2023/01/27 03:49:07;;;;;;;11.03;6.50;;;5.70;69.70;5.20;96358.00;;;;5050826;28;20180;-88
2023/01/27 03:51:42;;;;;;;12.57;7.27;;;5.60;69.70;5.20;96368.00;;;;5051411;28;20569;-88
2023/01/27 03:54:09;;;;;;;10.97;6.73;;;5.60;69.90;5.20;96366.00;;;;5051208;28;20195;-88
2023/01/27 03:56:36;;;;;;;10.17;6.77;;;5.60;69.90;5.20;96363.00;;;;5051090;28;20223;-87
2023/01/27 03:59:08;;;;;;;10.73;6.70;;;5.60;69.90;5.10;96372.00;;;;5051647;28;20238;-88
2023/01/27 04:01:35;;;;;;;9.00;6.67;;;5.60;70.00;5.10;96365.00;;;;5052594;28;20249;-88
2023/01/27 04:06:53;;;;;;;10.53;7.00;;;5.50;69.90;5.10;96370.00;;;;5053100;28;20656;-87
2023/01/27 04:09:25;;;;;;;10.30;6.17;;;5.50;70.00;5.10;96365.00;;;;5053109;28;20181;-88
2023/01/27 04:11:59;;;;;;;9.97;6.30;;;5.50;70.20;5.10;96361.00;;;;5052441;28;20303;-88
2023/01/27 04:14:30;;;;;;;9.73;5.87;;;5.50;70.20;5.10;96366.00;;;;5052915;28;20185;-88
2023/01/27 04:17:00;;;;;;;11.97;6.50;;;5.50;70.10;5.10;96374.00;;;;5054203;28;20744;-88
2023/01/27 04:19:28;;;;;;;12.33;6.90;;;5.50;70.10;5.10;96371.00;;;;5054789;28;20278;-88
2023/01/27 04:21:57;;;;;;;11.03;6.27;;;5.50;70.20;5.00;96376.00;;;;5054003;28;20225;-88
2023/01/27 04:24:25;;;;;;;13.53;6.83;;;5.40;70.20;5.00;96362.00;;;;5053516;28;20200;-89
2023/01/27 04:26:56;;;;;;;10.97;6.33;;;5.40;70.30;5.00;96360.00;;;;5054498;28;20197;-89
2023/01/27 04:29:26;;;;;;;11.13;6.37;;;5.50;70.60;5.00;96351.00;;;;5055392;28;20611;-88
2023/01/27 04:31:56;;;;;;;11.23;6.57;;;5.40;70.40;5.00;96357.00;;;;5053112;28;20221;-88
2023/01/27 04:34:24;;;;;;;10.77;6.63;;;5.40;70.40;5.10;96351.00;;;;5051815;28;20273;-89
2023/01/27 04:36:51;;;;;;;12.60;6.80;;;5.40;70.40;5.10;96355.00;;;;5051833;28;20208;-89
2023/01/27 04:39:19;;;;;;;9.10;6.50;;;5.40;70.50;5.10;96353.00;;;;5051997;28;20196;-88
2023/01/27 04:41:47;;;;;;;11.47;6.63;;;5.50;70.70;5.10;96354.00;;;;5053466;28;20232;-88
2023/01/27 04:44:15;;;;;;;13.03;6.50;;;5.50;70.70;5.10;96357.00;;;;5055275;28;20209;-88
2023/01/27 04:46:45;;;;;;;10.83;5.97;;;5.50;70.60;5.10;96354.00;;;;5055419;28;20228;-89
2023/01/27 04:49:14;;;;;;;8.80;5.60;;;5.50;70.60;5.10;96363.00;;;;5056315;28;20647;-88
2023/01/27 04:51:42;;;;;;;12.93;6.20;;;5.50;70.60;5.10;96358.00;;;;5055035;28;20717;-89
2023/01/27 04:54:09;;;;;;;10.60;5.90;;;5.50;70.50;5.10;96363.00;;;;5055832;28;20204;-89
2023/01/27 04:56:39;;;;;;;10.57;5.70;;;5.50;70.60;5.10;96368.00;;;;5056123;28;20201;-88
2023/01/27 04:59:14;;;;;;;9.63;5.90;;;5.40;70.50;5.00;96364.00;;;;5056665;28;20657;-89
2023/01/27 05:01:44;;;;;;;7.47;5.37;;;5.40;70.50;5.10;96361.00;;;;5056137;28;20228;-89
2023/01/27 05:04:13;;;;;;;9.17;5.60;;;5.50;70.80;5.10;96361.00;;;;5055950;28;20227;-89
2023/01/27 05:06:40;;;;;;;8.60;5.67;;;5.50;70.90;5.10;96360.00;;;;5057720;28;20232;-89
2023/01/27 05:09:07;;;;;;;14.60;5.83;;;5.40;70.90;5.10;96364.00;;;;5057370;28;20580;-88
2023/01/27 05:11:34;;;;;;;7.17;5.20;;;5.50;70.90;5.10;96366.00;;;;5056736;28;20268;-89
2023/01/27 05:14:02;;;;;;;8.07;5.03;;;5.50;71.00;5.10;96371.00;;;;5057109;28;20204;-88
2023/01/27 05:16:29;;;;;;;10.87;6.40;;;5.40;70.80;5.10;96367.00;;;;5056933;28;20246;-87
2023/01/27 05:18:56;;;;;;;9.83;6.17;;;5.40;70.80;5.10;96366.00;;;;5057349;28;20200;-87
2023/01/27 05:21:27;;;;;;;10.40;6.40;;;5.40;70.80;5.10;96373.00;;;;5057050;28;20288;-89
2023/01/27 05:23:55;;;;;;;12.80;6.40;;;5.50;70.80;5.10;96374.00;;;;5056422;28;20204;-90
2023/01/27 05:26:25;;;;;;;10.40;5.60;;;5.40;71.50;5.10;96370.00;;;;5055371;28;20228;-89
2023/01/27 05:28:53;;;;;;;17.00;6.43;;;5.40;70.80;5.10;96382.00;;;;5055467;28;20205;-89
2023/01/27 05:31:23;;;;;;;11.70;6.57;;;5.40;71.00;5.10;96382.00;;;;5059924;28;20224;-88
2023/01/27 05:33:53;;;;;;;8.97;5.83;;;5.50;71.10;5.10;96377.00;;;;5058303;28;20192;-88
2023/01/27 05:36:24;;;;;;;10.60;5.57;;;5.50;71.10;5.10;96391.00;;;;5055832;28;20204;-89
2023/01/27 05:38:52;;;;;;;12.53;5.60;;;5.50;71.00;5.20;96388.00;;;;5058038;28;20232;-89
2023/01/27 05:41:21;;;;;;;9.50;5.57;;;5.50;71.10;5.20;96395.00;;;;5054249;28;20270;-90
2023/01/27 05:43:53;;;;;;;9.67;5.90;;;5.50;71.30;5.20;96387.00;;;;5054180;28;20196;-90
2023/01/27 05:46:23;;;;;;;10.80;5.57;;;5.50;71.00;5.20;96396.00;;;;5053903;28;20219;-90
2023/01/27 05:48:53;;;;;;;9.40;6.30;;;5.50;70.80;5.20;96391.00;;;;5054409;28;20224;-89
2023/01/27 05:51:25;;;;;;;8.33;5.57;;;5.50;70.90;5.20;96400.00;;;;5054357;28;20225;-89
2023/01/27 05:53:54;;;;;;;8.67;5.27;;;5.50;70.70;5.20;96405.00;;;;5054603;28;20200;-89
2023/01/27 05:56:25;;;;;;;9.13;5.47;;;5.60;70.80;5.20;96410.00;;;;5055907;28;20209;-90
2023/01/27 05:58:54;;;;;;;13.93;4.97;;;5.60;70.80;5.20;96418.00;;;;5055436;28;20189;-89
2023/01/27 06:01:33;;;;;;;9.57;5.20;;;5.60;70.90;5.30;96417.00;;;;5054540;28;20733;-89
2023/01/27 06:04:05;;;;;;;7.20;5.33;;;5.60;71.00;5.30;96419.00;;;;5054910;28;20622;-89
2023/01/27 06:06:35;;;;;;;11.43;5.27;;;5.60;70.80;5.30;96413.00;;;;5054621;28;20243;-86
2023/01/27 06:09:09;;;;;;;9.63;5.30;;;5.60;70.70;5.30;96420.00;;;;5054124;28;20599;-85
2023/01/27 06:11:38;;;;;;;12.90;5.73;;;5.60;70.70;5.30;96412.00;;;;5052749;28;20221;-86
2023/01/27 06:14:06;;;;;;;11.23;5.77;;;5.60;70.60;5.30;96407.00;;;;5054359;28;20200;-87
2023/01/27 06:16:36;;;;;;;10.60;5.60;;;5.60;70.70;5.30;96425.00;;;;5055931;28;20193;-90
2023/01/27 06:19:08;;;;;;;9.50;5.20;;;5.60;71.50;5.30;96420.00;;;;5056085;28;20200;-90
2023/01/27 06:21:51;;;;;;;9.10;5.83;;;5.60;70.80;5.30;96433.00;;;;5054757;28;20228;-86
2023/01/27 06:24:24;;;;;;;9.13;5.17;;;5.60;70.60;5.30;96430.00;;;;5054938;28;20204;-90
2023/01/27 06:26:53;;;;;;;10.23;5.93;;;5.60;70.50;5.30;96424.00;;;;5053894;28;20177;-88
2023/01/27 06:29:28;;;;;;;12.27;5.67;;;5.60;70.50;5.30;96428.00;;;;5052793;28;20197;-89
2023/01/27 06:31:56;;;;;;;9.07;5.57;;;5.70;70.50;5.30;96436.00;;;;5053736;28;20712;-93
2023/01/27 06:34:26;;;;;;;14.23;6.30;;;5.60;70.50;5.40;96437.00;;;;5052847;28;20200;-92
2023/01/27 06:36:55;;;;;;;9.37;5.70;;;5.60;70.50;5.40;96441.00;;;;5058075;28;20192;-93
2023/01/27 06:39:22;;;;;;;8.93;5.43;;;5.70;70.50;5.50;96443.00;;;;5064293;28;20223;-91
2023/01/27 06:41:52;;;;;;;11.00;5.90;;;5.70;70.40;5.50;96441.00;;;;5074093;28;20251;-92
2023/01/27 06:44:19;;;;;;;9.83;5.83;;;5.70;70.30;5.50;96449.00;;;;5073204;28;20253;-92
2023/01/27 06:46:46;;;;;;;9.67;5.37;;;5.70;70.30;5.60;96453.00;;;;5072678;28;20253;-93
2023/01/27 06:49:14;;;;;;;8.67;5.53;;;5.70;70.30;5.60;96457.00;;;;5061929;28;20764;-92
2023/01/27 06:51:41;;;;;;;8.20;5.23;;;5.70;70.50;5.60;96458.00;;;;5054116;28;20216;-93
2023/01/27 06:54:10;;;;;;;7.80;5.20;;;5.70;70.40;5.70;96450.00;;;;5053156;28;20672;-93
2023/01/27 06:56:38;;;;;;;9.90;5.77;;;5.80;70.40;5.70;96454.00;;;;5052209;28;20239;-91
2023/01/27 06:59:05;;;;;;;13.50;5.97;;;5.90;70.50;5.70;96454.00;;;;5053576;28;20197;-92
2023/01/27 07:01:34;;;;;;;9.33;5.47;;;5.80;70.30;5.70;96459.00;;;;5053023;28;20288;-93
2023/01/27 07:04:02;;;;;;;14.23;6.40;;;5.80;70.20;5.70;96449.00;;;;5052964;28;20291;-93
2023/01/27 07:06:29;;;;;;;13.17;6.80;;;5.80;70.10;5.70;96453.00;;;;5055930;28;20228;-91
2023/01/27 07:08:57;;;;;;;13.27;5.93;;;5.90;70.20;5.80;96447.00;;;;5055735;28;20239;-92
2023/01/27 07:11:26;;;;;;;7.90;5.60;;;5.90;70.30;5.80;96453.00;;;;5055909;28;20299;-94
2023/01/27 07:13:54;;;;;;;8.87;6.23;;;5.90;70.30;5.80;96454.00;;;;5075052;28;20222;-93
2023/01/27 07:16:21;;;;;;;10.23;5.43;;;5.90;70.20;5.80;96453.00;;;;5071605;28;20593;-91
2023/01/27 07:18:49;;;;;;;13.03;5.97;;;5.90;70.10;5.80;96459.00;;;;5054414;28;20240;-93
2023/01/27 07:21:16;;;;;;;10.37;6.03;;;5.90;70.20;5.80;96455.00;;;;5053309;28;20823;-91
2023/01/27 07:23:57;;;;;;;9.83;5.27;;;6.00;70.20;5.80;96452.00;;;;5054068;28;20204;-92
2023/01/27 07:26:25;;;;;;;11.33;6.50;;;6.00;70.10;5.80;96451.00;;;;5044470;28;20222;-91
2023/01/27 07:28:53;;;;;;;13.33;6.43;;;6.00;70.10;5.80;96449.00;;;;5055542;28;20254;-91
2023/01/27 07:31:22;;;;;;;11.13;6.57;;;6.00;70.10;5.90;96452.00;;;;5071468;28;20258;-91
2023/01/27 07:34:02;;;;;;;11.20;6.50;;;6.10;70.10;5.90;96453.00;;;;5055009;28;20347;-91
2023/01/27 07:36:29;;;;;;;11.60;5.90;;;6.10;70.10;5.90;96459.00;;;;5049656;28;20270;-91
2023/01/27 07:38:56;;;;;;;10.57;6.80;;;6.10;70.10;6.00;96447.00;;;;5053180;28;20642;-90
2023/01/27 07:41:28;;;;;;;10.53;6.37;;;6.10;69.90;6.00;96449.00;;;;5053032;28;20235;-93
2023/01/27 07:43:57;;;;;;;10.70;6.60;;;6.10;69.70;6.00;96447.00;;;;5055814;28;20305;-91
2023/01/27 07:46:34;;;;;;;10.43;6.33;;;6.10;69.70;6.00;96443.00;;;;5054563;28;20672;-91
2023/01/27 07:49:03;;;;;;;12.17;6.90;;;6.20;69.60;6.00;96451.00;;;;5047250;28;20269;-90
2023/01/27 07:51:31;;;;;;;10.80;7.43;;;6.20;69.50;6.00;96447.00;;;;5065969;28;20223;-90
2023/01/27 07:53:58;;;;;;;13.77;7.33;;;6.20;69.40;6.00;96446.00;;;;5061210;28;20756;-90
2023/01/27 07:56:25;;;;;;;12.07;6.57;;;6.20;69.30;6.00;96447.00;;;;5059587;28;20196;-90
2023/01/27 07:59:06;;;;;;;11.53;7.37;;;6.20;69.30;6.00;96450.00;;;;5053650;28;20708;-90
2023/01/27 08:01:44;;;;;;;10.67;6.80;;;6.20;69.20;6.00;96459.00;;;;5058396;28;20303;-89
2023/01/27 08:04:16;;;;;;;14.97;8.20;;;6.20;69.00;6.00;96457.00;;;;5055223;28;20330;-90
2023/01/27 08:06:46;;;;;;;14.83;7.60;;;6.20;69.00;6.00;96469.00;;;;5050979;28;20888;-89
2023/01/27 08:09:14;;;;;;;14.13;8.67;;;6.20;69.10;6.00;96475.00;;;;5048127;28;20247;-89
2023/01/27 08:11:41;;;;;;;13.07;7.67;;;6.20;68.90;5.90;96468.00;;;;5053828;28;20226;-90
2023/01/27 08:14:09;;;;;;;13.97;7.80;;;6.20;68.80;5.90;96474.00;;;;5053585;28;20262;-91
2023/01/27 08:16:37;;;;;;;12.77;7.73;;;6.20;68.90;5.90;96466.00;;;;5052354;28;20201;-91
2023/01/27 08:19:04;;;;;;;12.53;7.90;;;6.10;68.90;5.90;96471.00;;;;5053079;28;20200;-90
2023/01/27 08:21:31;;;;;;;14.63;8.53;;;6.10;68.80;5.90;96468.00;;;;5053184;28;20240;-92
2023/01/27 08:23:59;;;;;;;17.73;8.93;;;6.10;69.00;5.90;96469.00;;;;5054189;28;20200;-92
2023/01/27 08:26:27;;;;;;;13.00;7.93;;;6.10;69.10;6.00;96470.00;;;;5053954;28;20219;-91
2023/01/27 08:28:55;;;;;;;16.50;8.90;;;6.10;69.10;6.00;96470.00;;;;5053367;28;20208;-92
2023/01/27 08:31:23;;;;;;;13.47;8.40;;;6.10;69.20;6.00;96477.00;;;;5052835;28;20270;-91
2023/01/27 08:33:54;;;;;;;13.67;8.63;;;6.20;69.40;6.00;96469.00;;;;5052743;28;20239;-90
2023/01/27 08:36:26;;;;;;;13.97;8.57;;;6.20;69.40;6.00;96480.00;;;;5054121;28;20204;-92
2023/01/27 08:38:53;;;;;;;16.30;9.00;;;6.20;69.20;6.00;96483.00;;;;5054176;28;20227;-91
2023/01/27 08:41:23;;;;;;;13.60;7.40;;;6.20;69.20;6.00;96487.00;;;;5054711;28;20224;-89
2023/01/27 08:43:51;;;;;;;14.60;8.00;;;6.20;69.30;6.10;96491.00;;;;5055132;28;20232;-90
2023/01/27 08:46:18;;;;;;;12.70;7.30;;;6.20;69.20;6.10;96495.00;;;;5053379;28;20197;-91
2023/01/27 08:48:49;;;;;;;14.90;8.60;;;6.20;69.10;6.10;96495.00;;;;5063690;28;20200;-93
2023/01/27 08:51:24;;;;;;;11.70;7.47;;;6.20;69.00;6.10;96499.00;;;;5073397;28;20223;-91
2023/01/27 08:53:54;;;;;;;14.83;8.03;;;6.30;69.00;6.10;96502.00;;;;5072536;28;20183;-90
2023/01/27 08:56:21;;;;;;;13.97;7.93;;;6.30;68.70;6.10;96501.00;;;;5071928;28;20200;-91
2023/01/27 08:58:51;;;;;;;14.13;7.77;;;6.30;68.70;6.20;96509.00;;;;5073278;28;20219;-91
2023/01/27 09:01:20;;;;;;;14.77;8.10;;;6.30;68.80;6.20;96516.00;;;;5051741;28;20217;-90
2023/01/27 09:03:49;;;;;;;16.17;7.77;;;6.30;69.00;6.20;96518.00;;;;5053238;28;20197;-91
2023/01/27 09:06:17;;;;;;;12.77;7.47;;;6.40;69.00;6.30;96523.00;;;;5056054;28;20204;-92
2023/01/27 09:09:07;;;;;;;14.07;8.00;;;6.40;69.00;6.30;96506.00;;;;5057149;28;20287;-91
2023/01/27 09:11:32;;;;;;;14.50;7.70;;;6.40;69.60;6.30;96501.00;;;;5054115;28;20309;-91
2023/01/27 09:13:59;;;;;;;12.90;7.97;;;6.40;68.90;6.30;96515.00;;;;5055198;28;20221;-90
2023/01/27 09:16:27;;;;;;;14.80;8.03;;;6.40;68.80;6.30;96517.00;;;;5056592;28;20226;-91
2023/01/27 09:18:57;;;;;;;12.70;7.97;;;6.50;68.80;6.40;96512.00;;;;5080632;28;20196;-90
2023/01/27 09:21:25;;;;;;;13.80;7.73;;;6.50;68.90;6.40;96515.00;;;;5066365;28;20229;-92
2023/01/27 09:23:52;;;;;;;12.63;7.80;;;6.50;68.80;6.40;96518.00;;;;5057997;28;20226;-90
2023/01/27 09:26:19;;;;;;;12.93;7.60;;;6.50;68.70;6.40;96523.00;;;;5052073;28;20232;-89
2023/01/27 09:28:47;;;;;;;13.07;7.80;;;6.50;68.70;6.40;96522.00;;;;5054826;28;20284;-90
2023/01/27 09:31:14;;;;;;;10.53;7.23;;;6.50;68.50;6.40;96529.00;;;;5055927;28;20304;-90
2023/01/27 09:33:41;;;;;;;15.30;8.30;;;6.60;68.60;6.50;96525.00;;;;5056718;28;20224;-91
2023/01/27 09:36:14;;;;;;;12.60;7.73;;;6.60;68.50;6.50;96513.00;;;;5055312;28;20283;-91
2023/01/27 09:38:48;;;;;;;11.30;6.77;;;6.60;68.50;6.60;96516.00;;;;5056330;28;20204;-90
2023/01/27 09:41:46;;;;;;;16.70;8.00;;;6.60;68.50;6.60;96521.00;;;;5055293;28;20232;-91
2023/01/27 09:44:40;;;;;;;13.93;7.97;;;6.70;68.20;6.60;96519.00;;;;5055341;28;20204;-93
2023/01/27 09:47:34;;;;;;;11.63;7.23;;;6.70;68.10;6.60;96529.00;;;;5035484;28;20209;-90
2023/01/27 09:50:42;;;;;;;13.27;7.30;;;6.70;68.00;6.50;96521.00;;;;5036036;28;20205;-92
2023/01/27 09:53:50;;;;;;;13.13;6.67;;;6.70;67.80;6.50;96528.00;;;;5044571;28;20729;-91
2023/01/27 09:56:31;;;;;;;14.87;7.30;;;6.70;67.90;6.50;96525.00;;;;5055833;28;20184;-89
2023/01/27 09:59:23;;;;;;;12.73;7.57;;;6.70;68.00;6.50;96519.00;;;;5055905;28;20626;-91
2023/01/27 10:02:05;;;;;;;12.67;7.17;;;6.70;68.00;6.50;96513.00;;;;5055889;28;20625;-89
2023/01/27 10:05:05;;;;;;;12.10;6.77;;;6.70;68.00;6.50;96520.00;;;;5056293;28;20227;-88
2023/01/27 10:08:06;;;;;;;12.87;7.73;;;6.70;68.00;6.50;96533.00;;;;5022322;28;20661;-90
2023/01/27 10:10:56;;;;;;;13.20;7.03;;;6.70;67.90;6.50;96528.00;;;;5059155;28;20255;-89
2023/01/27 10:13:37;;;;;;;19.47;7.80;;;6.70;68.00;6.50;96519.00;;;;5055434;28;20235;-89
2023/01/27 10:16:26;;;;;;;12.27;7.47;;;6.70;68.20;6.50;96522.00;;;;5051711;28;20575;-88
2023/01/27 10:19:17;;;;;;;11.90;6.77;;;6.70;68.20;6.60;96539.00;;;;5062702;28;20185;-88
2023/01/27 10:22:00;;;;;;;14.80;7.63;;;6.70;68.10;6.60;96534.00;;;;5070108;28;20283;-88
2023/01/27 10:24:48;;;;;;;12.00;6.43;;;6.70;68.00;6.60;96534.00;;;;5039473;28;20608;-89
2023/01/27 10:27:22;;;;;;;10.93;6.77;;;6.70;68.00;6.50;96538.00;;;;5055335;28;20641;-88
2023/01/27 10:29:57;;;;;;;11.80;6.90;;;6.70;68.00;6.50;96533.00;;;;5061748;28;20204;-88
2023/01/27 10:32:30;;;;;;;12.47;6.50;;;6.70;68.00;6.50;96541.00;;;;5054968;28;20220;-88
2023/01/27 10:35:17;;;;;;;15.00;8.10;;;6.70;68.20;6.50;96538.00;;;;5053447;28;20232;-89
2023/01/27 10:37:58;;;;;;;11.00;6.80;;;6.60;67.80;6.50;96550.00;;;;5058276;28;20237;-87
2023/01/27 10:40:40;;;;;;;14.27;6.60;;;6.60;67.80;6.50;96552.00;;;;5046466;28;20524;-89
2023/01/27 10:43:18;;;;;;;13.03;7.33;;;6.60;68.00;6.40;96537.00;;;;5064608;28;20217;-88
2023/01/27 10:45:56;;;;;;;15.43;7.47;;;6.60;68.10;6.40;96536.00;;;;5058991;28;20201;-88
2023/01/27 10:48:37;;;;;;;12.43;6.47;;;6.60;68.10;6.40;96534.00;;;;5064702;28;20249;-88
2023/01/27 10:51:13;;;;;;;19.60;7.03;;;6.60;68.10;6.40;96537.00;;;;5076509;28;20246;-88
2023/01/27 10:53:56;;;;;;;12.10;6.93;;;6.60;68.10;6.40;96533.00;;;;5062602;28;20192;-88
2023/01/27 10:56:43;;;;;;;13.90;6.90;;;6.60;68.30;6.40;96534.00;;;;5057490;28;20209;-86
2023/01/27 10:59:29;;;;;;;12.87;6.77;;;6.60;68.30;6.50;96535.00;;;;5057399;28;20223;-87
2023/01/27 11:02:04;;;;;;;11.67;6.90;;;6.60;68.30;6.50;96545.00;;;;5057146;28;20223;-87
2023/01/27 11:04:39;;;;;;;12.70;7.40;;;6.60;68.10;6.50;96536.00;;;;5057145;28;20195;-87
2023/01/27 11:07:16;;;;;;;11.83;7.30;;;6.60;68.00;6.50;96532.00;;;;5057031;28;20208;-87
2023/01/27 11:13:31;;;;;;;21.63;7.00;;;6.60;68.00;6.50;96539.00;;;;4995321;28;20753;-87
2023/01/27 11:16:22;;;;;;;11.13;6.47;;;6.50;68.00;6.40;96533.00;;;;5008587;28;20306;-87
2023/01/27 11:19:06;;;;;;;12.37;6.80;;;6.60;67.90;6.40;96539.00;;;;5035779;28;20193;-87
2023/01/27 11:22:00;;;;;;;12.10;6.07;;;6.60;67.90;6.40;96544.00;;;;5035729;28;20272;-87
2023/01/27 11:25:07;;;;;;;12.27;6.90;;;6.60;67.80;6.40;96546.00;;;;5035540;28;20201;-87
2023/01/27 11:28:28;;;;;;;;;;;;;;;;;;;;;
2023/01/27 11:31:25;;;;;;;10.63;6.33;;;6.60;67.60;6.40;96538.00;;;;5051266;28;20228;-88
2023/01/27 11:34:44;;;;;;;12.57;6.70;;;6.60;67.70;6.40;96527.00;;;;5052928;28;20279;-87
2023/01/27 11:37:35;;;;;;;10.97;6.33;;;6.60;67.50;6.40;96522.00;;;;5039397;28;20196;-87
2023/01/27 11:40:23;;;;;;;10.93;6.27;;;7.10;67.90;6.40;96531.00;;;;5053761;28;20646;-88
2023/01/27 11:42:56;;;;;;;11.87;6.33;;;6.60;67.50;6.40;96520.00;;;;5034590;28;20603;-88
2023/01/27 11:45:27;;;;;;;12.27;6.60;;;6.60;67.80;6.40;96516.00;;;;5037552;28;20608;-87
2023/01/27 11:48:02;;;;;;;11.87;6.60;;;6.60;67.60;6.50;96520.00;;;;5054214;28;20181;-88
2023/01/27 11:50:34;;;;;;;11.73;6.37;;;6.60;67.80;6.50;96520.00;;;;5052745;28;20250;-87
2023/01/27 11:53:17;;;;;;;13.07;6.80;;;6.60;67.90;6.50;96517.00;;;;5054240;28;20200;-85
2023/01/27 11:55:59;;;;;;;11.90;7.33;;;6.60;67.90;6.50;96514.00;;;;5054132;28;20203;-87
2023/01/27 11:58:43;;;;;;;14.40;7.13;;;6.60;67.80;6.50;96512.00;;;;5052489;28;20667;-87
2023/01/27 12:01:19;;;;;;;12.80;7.03;;;6.70;68.30;6.50;96507.00;;;;5053963;28;20227;-89
2023/01/27 12:03:57;;;;;;;18.00;6.20;;;6.70;67.50;6.50;96512.00;;;;5053556;28;20220;-88
2023/01/27 12:06:35;;;;;;;12.13;7.07;;;6.70;67.60;6.50;96517.00;;;;5053202;28;20208;-89
2023/01/27 12:09:02;;;;;;;11.23;6.67;;;6.70;67.80;6.50;96504.00;;;;5053692;28;20576;-89
2023/01/27 12:12:09;;;;;;;14.23;6.90;;;6.70;67.80;6.60;96509.00;;;;5054190;28;20228;-88